Time;durP1;ratioP1;P1;durP2;ratioP2;P2;SDS_P1;SDS_P2;PMS_P1;PMS_P2;Temp;Humidity;BMP_temperature;BMP_pressure;BME280_temperature;BME280_humidity;BME280_pressure;Samples;Min_cycle;Max_cycle;Signal;HPM_P1;HPM_P2
2021/05/01 00:00:36;;;;;;;23.73;15.65;;;;;;;;;;5093143;28;20434;-77
2021/05/01 00:03:03;;;;;;;19.58;15.35;;;;;;;;;;5093031;28;20144;-77
2021/05/01 00:05:28;;;;;;;20.55;14.48;;;;;;;;;;5094400;28;20024;-77
2021/05/01 00:07:54;;;;;;;16.13;13.50;;;;;;;;;;5094140;28;20374;-78
2021/05/01 00:10:19;;;;;;;18.30;14.50;;;;;;;;;;5094392;28;20495;-77
2021/05/01 00:12:44;;;;;;;13.95;11.63;;;;;;;;;;5094022;28;20032;-77
2021/05/01 00:15:12;;;;;;;16.02;13.60;;;;;;;;;;5094238;28;20131;-77
2021/05/01 00:17:37;;;;;;;17.95;13.48;;;;;;;;;;5093847;28;20085;-77
2021/05/01 00:20:04;;;;;;;23.48;18.65;;;;;;;;;;5093915;28;20027;-77
2021/05/01 00:22:29;;;;;;;23.45;18.63;;;;;;;;;;5092770;28;20057;-77
2021/05/01 00:24:54;;;;;;;22.38;17.08;;;;;;;;;;5093974;28;20424;-77
2021/05/01 00:27:20;;;;;;;23.00;17.30;;;;;;;;;;5093988;28;20066;-77
2021/05/01 00:29:46;;;;;;;24.88;18.17;;;;;;;;;;5094004;28;20081;-77
2021/05/01 00:32:11;;;;;;;22.45;15.93;;;;;;;;;;5093966;28;20039;-77
2021/05/01 00:34:37;;;;;;;14.15;11.30;;;;;;;;;;5092817;28;20028;-77
2021/05/01 00:37:02;;;;;;;15.00;11.85;;;;;;;;;;5093429;28;20083;-77
2021/05/01 00:39:27;;;;;;;16.70;12.40;;;;;;;;;;5094065;28;20114;-77
2021/05/01 00:41:53;;;;;;;20.35;14.75;;;;;;;;;;5093259;28;20043;-77
2021/05/01 00:44:19;;;;;;;17.48;14.00;;;;;;;;;;5093404;28;20036;-77
2021/05/01 00:46:44;;;;;;;25.13;16.48;;;;;;;;;;5092186;28;20043;-77
2021/05/01 00:49:09;;;;;;;19.55;16.25;;;;;;;;;;5093665;28;20693;-77
2021/05/01 00:51:35;;;;;;;20.83;15.63;;;;;;;;;;5093360;28;20044;-77
2021/05/01 00:54:01;;;;;;;20.27;15.52;;;;;;;;;;5093603;28;20072;-77
2021/05/01 00:56:26;;;;;;;20.85;14.73;;;;;;;;;;5092172;28;20028;-77
2021/05/01 00:58:53;;;;;;;19.67;14.38;;;;;;;;;;5093223;28;20457;-77
2021/05/01 01:01:18;;;;;;;18.83;14.88;;;;;;;;;;5093600;28;20032;-77
2021/05/01 01:03:46;;;;;;;17.73;14.85;;;;;;;;;;5093521;28;20119;-77
2021/05/01 01:06:13;;;;;;;20.60;15.25;;;;;;;;;;5093242;28;20039;-77
2021/05/01 01:08:39;;;;;;;22.70;17.52;;;;;;;;;;5093270;28;20031;-78
2021/05/01 01:11:04;;;;;;;25.90;19.98;;;;;;;;;;5093437;28;20466;-76
2021/05/01 01:13:29;;;;;;;26.42;20.15;;;;;;;;;;5093376;28;20039;-77
2021/05/01 01:15:55;;;;;;;28.15;19.40;;;;;;;;;;5093201;28;20047;-77
2021/05/01 01:18:21;;;;;;;26.42;18.25;;;;;;;;;;5091870;28;20036;-77
2021/05/01 01:20:46;;;;;;;22.77;18.08;;;;;;;;;;5093142;28;20044;-77
2021/05/01 01:23:12;;;;;;;28.92;19.27;;;;;;;;;;5093412;28;20058;-77
2021/05/01 01:25:37;;;;;;;26.63;18.75;;;;;;;;;;5097062;28;20024;-77
2021/05/01 01:28:03;;;;;;;24.80;19.95;;;;;;;;;;5097229;28;20473;-77
2021/05/01 01:30:31;;;;;;;24.35;18.58;;;;;;;;;;5096242;28;20040;-77
2021/05/01 01:33:02;;;;;;;24.73;19.35;;;;;;;;;;5097439;28;20529;-77
2021/05/01 01:35:28;;;;;;;23.48;19.55;;;;;;;;;;5097305;28;20470;-78
2021/05/01 01:37:54;;;;;;;25.65;19.60;;;;;;;;;;5097277;28;20035;-76
2021/05/01 01:40:21;;;;;;;24.40;19.25;;;;;;;;;;5086719;28;20037;-77
2021/05/01 01:42:47;;;;;;;22.55;18.65;;;;;;;;;;5076560;28;20063;-77
2021/05/01 01:45:15;;;;;;;21.17;17.30;;;;;;;;;;5076676;28;20056;-77
2021/05/01 01:47:41;;;;;;;23.23;16.85;;;;;;;;;;5076630;28;20115;-78
2021/05/01 01:50:09;;;;;;;22.88;16.55;;;;;;;;;;5076799;28;20097;-77
2021/05/01 01:52:36;;;;;;;20.13;15.73;;;;;;;;;;5076745;28;20425;-77
2021/05/01 01:55:10;;;;;;;22.65;16.38;;;;;;;;;;5076739;28;20122;-77
2021/05/01 01:57:36;;;;;;;23.63;18.15;;;;;;;;;;5076307;28;20051;-77
2021/05/01 02:00:05;;;;;;;25.10;18.17;;;;;;;;;;5076544;28;20028;-77
2021/05/01 02:02:38;;;;;;;22.58;18.20;;;;;;;;;;5075155;28;20036;-77
2021/05/01 02:05:03;;;;;;;25.65;20.27;;;;;;;;;;5075156;28;20127;-77
2021/05/01 02:07:29;;;;;;;22.88;18.67;;;;;;;;;;5076308;28;20033;-77
2021/05/01 02:09:54;;;;;;;24.65;19.38;;;;;;;;;;5083053;28;20039;-78
2021/05/01 02:12:20;;;;;;;24.02;18.50;;;;;;;;;;5096341;28;20497;-77
2021/05/01 02:14:45;;;;;;;27.05;19.00;;;;;;;;;;5096471;28;20064;-78
2021/05/01 02:17:11;;;;;;;23.58;18.52;;;;;;;;;;5094935;28;20063;-77
2021/05/01 02:19:36;;;;;;;26.25;20.13;;;;;;;;;;5096352;28;20074;-77
2021/05/01 02:22:02;;;;;;;26.45;20.63;;;;;;;;;;5096549;28;20039;-78
2021/05/01 02:24:27;;;;;;;27.90;20.30;;;;;;;;;;5096782;28;20039;-78
2021/05/01 02:26:53;;;;;;;26.40;19.70;;;;;;;;;;5095361;28;20039;-77
2021/05/01 02:29:18;;;;;;;28.45;20.60;;;;;;;;;;5095841;28;20118;-78
2021/05/01 02:31:43;;;;;;;23.52;19.20;;;;;;;;;;5096155;28;20036;-78
2021/05/01 02:34:09;;;;;;;21.63;16.80;;;;;;;;;;5096181;28;20065;-78
2021/05/01 02:36:34;;;;;;;23.90;19.05;;;;;;;;;;5096023;28;20028;-78
2021/05/01 02:39:00;;;;;;;23.15;18.92;;;;;;;;;;5096119;28;20415;-77
2021/05/01 02:41:25;;;;;;;25.02;19.15;;;;;;;;;;5095784;28;20623;-77
2021/05/01 02:43:51;;;;;;;23.92;18.90;;;;;;;;;;5095939;28;20039;-78
2021/05/01 02:46:17;;;;;;;26.05;19.25;;;;;;;;;;5094696;28;20046;-77
2021/05/01 02:48:42;;;;;;;24.42;19.30;;;;;;;;;;5096099;28;20040;-77
2021/05/01 02:51:08;;;;;;;25.58;19.88;;;;;;;;;;5096029;28;20537;-77
2021/05/01 02:53:34;;;;;;;24.70;18.80;;;;;;;;;;5096115;28;20040;-77
2021/05/01 02:56:00;;;;;;;24.42;18.45;;;;;;;;;;5095495;28;20114;-76
2021/05/01 02:58:25;;;;;;;24.85;19.33;;;;;;;;;;5095367;28;20047;-77
2021/05/01 03:00:51;;;;;;;29.00;20.80;;;;;;;;;;5095501;28;20039;-77
2021/05/01 03:03:16;;;;;;;26.55;20.80;;;;;;;;;;5095764;28;20036;-77
2021/05/01 03:05:42;;;;;;;23.80;19.60;;;;;;;;;;5095696;28;20390;-77
2021/05/01 03:08:07;;;;;;;26.17;20.65;;;;;;;;;;5095708;28;20040;-77
2021/05/01 03:10:33;;;;;;;23.73;19.55;;;;;;;;;;5095705;28;20035;-77
2021/05/01 03:12:58;;;;;;;27.60;21.65;;;;;;;;;;5095167;28;20104;-77
2021/05/01 03:15:24;;;;;;;27.88;21.17;;;;;;;;;;5095215;28;20024;-77
2021/05/01 03:17:50;;;;;;;28.52;20.75;;;;;;;;;;5094289;28;20040;-77
2021/05/01 03:20:16;;;;;;;25.27;20.67;;;;;;;;;;5095395;28;20042;-77
2021/05/01 03:22:43;;;;;;;26.02;20.83;;;;;;;;;;5095260;28;20039;-77
2021/05/01 03:25:10;;;;;;;23.65;19.20;;;;;;;;;;5095242;28;20428;-77
2021/05/01 03:27:36;;;;;;;25.42;20.05;;;;;;;;;;5093500;28;20050;-77
2021/05/01 03:30:04;;;;;;;26.65;21.05;;;;;;;;;;5095174;28;20077;-76
2021/05/01 03:32:30;;;;;;;30.88;21.42;;;;;;;;;;5095077;28;20035;-77
2021/05/01 03:34:55;;;;;;;25.35;20.00;;;;;;;;;;5094981;28;20038;-77
2021/05/01 03:37:21;;;;;;;31.65;22.05;;;;;;;;;;5093917;28;20028;-77
2021/05/01 03:39:47;;;;;;;25.30;19.92;;;;;;;;;;5089365;28;20412;-77
2021/05/01 03:42:12;;;;;;;24.80;20.45;;;;;;;;;;5074420;28;20072;-77
2021/05/01 03:44:37;;;;;;;26.05;19.90;;;;;;;;;;5074363;28;20453;-77
2021/05/01 03:47:03;;;;;;;22.85;18.88;;;;;;;;;;5074095;28;20066;-77
2021/05/01 03:49:29;;;;;;;25.85;17.92;;;;;;;;;;5074357;28;20028;-77
2021/05/01 03:51:54;;;;;;;21.33;17.33;;;;;;;;;;5074727;28;20425;-77
2021/05/01 03:54:19;;;;;;;20.85;17.27;;;;;;;;;;5072945;28;20036;-77
2021/05/01 03:56:45;;;;;;;22.77;17.77;;;;;;;;;;5074352;28;20047;-78
2021/05/01 03:59:11;;;;;;;22.48;17.95;;;;;;;;;;5074129;28;20043;-77
2021/05/01 04:01:36;;;;;;;24.63;19.90;;;;;;;;;;5074263;28;20032;-77
2021/05/01 04:04:02;;;;;;;28.33;19.95;;;;;;;;;;5074454;28;20040;-77
2021/05/01 04:06:28;;;;;;;24.40;17.95;;;;;;;;;;5074064;28;20373;-76
2021/05/01 04:08:53;;;;;;;24.52;19.10;;;;;;;;;;5074355;28;20032;-76
2021/05/01 04:11:20;;;;;;;26.85;20.88;;;;;;;;;;5092510;28;20031;-77
2021/05/01 04:13:48;;;;;;;27.25;20.60;;;;;;;;;;5094243;28;20036;-77
2021/05/01 04:16:15;;;;;;;25.25;19.70;;;;;;;;;;5094041;28;20043;-77
2021/05/01 04:18:40;;;;;;;28.75;19.77;;;;;;;;;;5094364;28;20485;-77
2021/05/01 04:21:06;;;;;;;24.60;18.45;;;;;;;;;;5094155;28;20036;-77
2021/05/01 04:23:32;;;;;;;25.77;20.50;;;;;;;;;;5092584;28;20024;-77
2021/05/01 04:25:58;;;;;;;24.83;19.13;;;;;;;;;;5094191;28;20036;-77
2021/05/01 04:28:23;;;;;;;24.75;20.25;;;;;;;;;;5093669;28;20035;-76
2021/05/01 04:30:49;;;;;;;23.25;18.73;;;;;;;;;;5093955;28;20441;-77
2021/05/01 04:33:14;;;;;;;25.63;18.92;;;;;;;;;;5094032;28;20381;-77
2021/05/01 04:35:40;;;;;;;25.98;18.95;;;;;;;;;;5093692;28;20409;-77
2021/05/01 04:38:05;;;;;;;24.40;19.10;;;;;;;;;;5094068;28;20032;-77
2021/05/01 04:40:30;;;;;;;22.35;18.15;;;;;;;;;;5080525;28;20032;-77
2021/05/01 04:43:00;;;;;;;23.45;18.20;;;;;;;;;;5071545;28;20535;-77
2021/05/01 04:45:26;;;;;;;27.27;19.02;;;;;;;;;;5073518;28;20040;-77
2021/05/01 04:47:52;;;;;;;24.85;18.58;;;;;;;;;;5073729;28;20033;-77
2021/05/01 04:50:18;;;;;;;23.48;18.33;;;;;;;;;;5073675;28;20090;-77
2021/05/01 04:52:43;;;;;;;24.77;17.75;;;;;;;;;;5073384;28;20028;-77
2021/05/01 04:55:18;;;;;;;23.65;18.13;;;;;;;;;;5073288;28;20037;-78
2021/05/01 04:57:45;;;;;;;20.90;16.50;;;;;;;;;;5072827;28;20048;-77
2021/05/01 05:00:12;;;;;;;21.33;16.60;;;;;;;;;;5072712;28;20059;-77
2021/05/01 05:02:38;;;;;;;24.50;17.60;;;;;;;;;;5073578;28;20040;-77
2021/05/01 05:05:05;;;;;;;23.85;17.38;;;;;;;;;;5072175;28;20424;-76
2021/05/01 05:07:31;;;;;;;25.08;17.77;;;;;;;;;;5073118;28;20390;-77
2021/05/01 05:09:56;;;;;;;21.23;17.40;;;;;;;;;;5080298;28;20032;-77
2021/05/01 05:12:22;;;;;;;25.30;17.67;;;;;;;;;;5091903;28;20032;-76
2021/05/01 05:14:47;;;;;;;28.75;18.02;;;;;;;;;;5091895;28;20040;-77
2021/05/01 05:17:13;;;;;;;26.67;19.52;;;;;;;;;;5093243;28;20034;-77
2021/05/01 05:19:38;;;;;;;25.70;19.10;;;;;;;;;;5093265;28;20039;-77
2021/05/01 05:22:04;;;;;;;23.63;18.38;;;;;;;;;;5091971;28;20111;-77
2021/05/01 05:24:29;;;;;;;23.65;18.63;;;;;;;;;;5093346;28;20477;-77
2021/05/01 05:26:55;;;;;;;23.88;19.70;;;;;;;;;;5093271;28;20063;-77
2021/05/01 05:29:20;;;;;;;23.38;18.33;;;;;;;;;;5091888;28;20036;-77
2021/05/01 05:31:46;;;;;;;26.13;19.15;;;;;;;;;;5093376;28;20061;-77
2021/05/01 05:34:11;;;;;;;24.13;18.73;;;;;;;;;;5093259;28;20522;-77
2021/05/01 05:36:36;;;;;;;25.50;18.65;;;;;;;;;;5093101;28;20450;-78
2021/05/01 05:39:04;;;;;;;21.70;17.23;;;;;;;;;;5091662;28;20138;-78
2021/05/01 05:41:31;;;;;;;23.88;18.13;;;;;;;;;;5091896;28;20575;-77
2021/05/01 05:43:57;;;;;;;22.13;18.13;;;;;;;;;;5093496;28;20358;-77
2021/05/01 05:46:22;;;;;;;23.48;17.85;;;;;;;;;;5095532;28;20051;-80
2021/05/01 05:48:48;;;;;;;22.52;18.33;;;;;;;;;;5093979;28;20032;-75
2021/05/01 05:51:13;;;;;;;19.90;16.10;;;;;;;;;;5092980;28;20036;-75
2021/05/01 05:53:39;;;;;;;22.25;17.42;;;;;;;;;;5092546;28;20032;-76
2021/05/01 05:56:07;;;;;;;24.77;17.10;;;;;;;;;;5092918;28;20032;-77
2021/05/01 05:58:33;;;;;;;23.55;18.05;;;;;;;;;;5092517;28;20085;-76
2021/05/01 06:00:58;;;;;;;25.23;17.42;;;;;;;;;;5092958;28;20036;-76
2021/05/01 06:03:25;;;;;;;24.83;17.48;;;;;;;;;;5092719;28;20044;-76
2021/05/01 06:05:58;;;;;;;21.48;17.35;;;;;;;;;;5092575;28;20044;-76
2021/05/01 06:08:23;;;;;;;25.35;19.17;;;;;;;;;;5092620;28;20036;-75
2021/05/01 06:10:50;;;;;;;22.25;17.92;;;;;;;;;;5094768;28;20043;-76
2021/05/01 06:13:16;;;;;;;20.60;16.95;;;;;;;;;;5096193;28;20050;-75
2021/05/01 06:15:43;;;;;;;23.33;17.73;;;;;;;;;;5096333;28;20112;-76
2021/05/01 06:18:13;;;;;;;28.20;18.17;;;;;;;;;;5095236;28;20085;-76
2021/05/01 06:20:39;;;;;;;27.52;19.70;;;;;;;;;;5095839;28;20043;-76
2021/05/01 06:23:04;;;;;;;24.52;18.25;;;;;;;;;;5096316;28;20036;-76
2021/05/01 06:25:30;;;;;;;22.55;17.90;;;;;;;;;;5078563;28;20032;-77
2021/05/01 06:27:55;;;;;;;20.27;16.98;;;;;;;;;;5096076;28;20123;-76
2021/05/01 06:30:23;;;;;;;21.35;16.80;;;;;;;;;;5094891;28;20032;-76
2021/05/01 06:32:50;;;;;;;22.65;16.90;;;;;;;;;;5097011;28;20032;-76
2021/05/01 06:35:16;;;;;;;21.27;17.42;;;;;;;;;;5095846;28;20036;-76
2021/05/01 06:37:43;;;;;;;24.77;17.58;;;;;;;;;;5095862;28;20039;-74
2021/05/01 06:40:13;;;;;;;23.05;16.98;;;;;;;;;;5094604;28;20043;-77
2021/05/01 06:42:52;;;;;;;22.50;18.80;;;;;;;;;;5095608;28;20040;-75
2021/05/01 06:45:19;;;;;;;20.98;17.63;;;;;;;;;;5095549;28;20062;-75
2021/05/01 06:47:52;;;;;;;20.92;17.30;;;;;;;;;;5095455;28;20024;-75
2021/05/01 06:50:21;;;;;;;24.08;19.90;;;;;;;;;;5095735;28;20119;-74
2021/05/01 06:52:47;;;;;;;20.75;17.80;;;;;;;;;;5095945;28;20127;-76
2021/05/01 06:55:14;;;;;;;25.38;19.52;;;;;;;;;;5094403;28;20131;-76
2021/05/01 06:57:48;;;;;;;19.75;16.42;;;;;;;;;;5095584;28;20397;-75
2021/05/01 07:00:15;;;;;;;22.30;18.23;;;;;;;;;;5094433;28;20063;-77
2021/05/01 07:02:44;;;;;;;19.85;15.43;;;;;;;;;;5095078;28;20059;-76
2021/05/01 07:05:11;;;;;;;21.25;17.33;;;;;;;;;;5095543;28;20028;-77
2021/05/01 07:07:37;;;;;;;21.30;16.95;;;;;;;;;;5095571;28;20474;-76
2021/05/01 07:10:05;;;;;;;21.25;15.25;;;;;;;;;;5095484;28;20039;-76
2021/05/01 07:12:32;;;;;;;19.20;14.40;;;;;;;;;;5093798;28;20497;-76
2021/05/01 07:15:01;;;;;;;18.58;14.98;;;;;;;;;;5095433;28;20468;-76
2021/05/01 07:17:27;;;;;;;20.70;15.15;;;;;;;;;;5096828;28;20059;-78
2021/05/01 07:19:54;;;;;;;16.50;14.13;;;;;;;;;;5096181;28;20024;-77
2021/05/01 07:22:20;;;;;;;18.35;15.43;;;;;;;;;;5094531;28;20043;-77
2021/05/01 07:24:45;;;;;;;20.45;15.93;;;;;;;;;;5093717;28;20031;-77
2021/05/01 07:27:11;;;;;;;20.90;15.60;;;;;;;;;;5096154;28;20431;-77
2021/05/01 07:29:41;;;;;;;17.67;14.27;;;;;;;;;;5093594;28;20039;-76
2021/05/01 07:32:14;;;;;;;16.38;13.70;;;;;;;;;;5095125;28;20039;-76
2021/05/01 07:34:49;;;;;;;19.30;15.60;;;;;;;;;;5095514;28;20039;-76
2021/05/01 07:37:18;;;;;;;21.38;16.52;;;;;;;;;;5093885;28;20040;-76
2021/05/01 07:39:48;;;;;;;20.33;16.45;;;;;;;;;;5095019;28;20394;-77
2021/05/01 07:42:16;;;;;;;23.38;16.65;;;;;;;;;;5094407;28;20072;-76
2021/05/01 07:44:41;;;;;;;20.13;16.67;;;;;;;;;;5095207;28;20107;-76
2021/05/01 07:47:07;;;;;;;19.00;16.15;;;;;;;;;;5094923;28;20500;-76
2021/05/01 07:49:32;;;;;;;24.23;18.52;;;;;;;;;;5094996;28;20036;-76
2021/05/01 07:52:00;;;;;;;30.95;22.63;;;;;;;;;;5095325;28;20088;-76
2021/05/01 07:54:25;;;;;;;31.67;23.38;;;;;;;;;;5094923;28;20608;-77
2021/05/01 07:56:52;;;;;;;31.05;24.08;;;;;;;;;;5094615;28;20130;-76
2021/05/01 07:59:17;;;;;;;34.10;24.67;;;;;;;;;;5070598;28;20044;-77
2021/05/01 08:01:43;;;;;;;32.65;23.50;;;;;;;;;;5061598;28;20037;-76
2021/05/01 08:04:10;;;;;;;31.75;23.23;;;;;;;;;;5062711;28;20107;-76
2021/05/01 08:06:36;;;;;;;33.78;25.00;;;;;;;;;;5062138;28;20142;-77
2021/05/01 08:09:02;;;;;;;30.33;22.98;;;;;;;;;;5071301;28;20040;-77
2021/05/01 08:11:27;;;;;;;34.50;25.63;;;;;;;;;;5084061;28;20032;-77
2021/05/01 08:13:53;;;;;;;34.15;24.48;;;;;;;;;;5095305;28;20028;-74
2021/05/01 08:16:18;;;;;;;33.30;24.33;;;;;;;;;;5093777;28;20036;-77
2021/05/01 08:18:44;;;;;;;33.53;23.17;;;;;;;;;;5093630;28;20036;-75
2021/05/01 08:21:10;;;;;;;33.53;23.40;;;;;;;;;;5094103;28;20028;-75
2021/05/01 08:23:36;;;;;;;33.50;24.15;;;;;;;;;;5092886;28;20050;-76
2021/05/01 08:26:04;;;;;;;35.58;26.05;;;;;;;;;;5093883;28;20419;-76
2021/05/01 08:28:30;;;;;;;37.10;28.40;;;;;;;;;;5094470;28;20062;-76
2021/05/01 08:30:55;;;;;;;40.60;29.55;;;;;;;;;;5094078;28;20068;-75
2021/05/01 08:33:21;;;;;;;42.63;30.92;;;;;;;;;;5094148;28;20067;-75
2021/05/01 08:35:47;;;;;;;42.70;30.58;;;;;;;;;;5093937;28;20024;-75
2021/05/01 08:38:13;;;;;;;39.78;30.67;;;;;;;;;;5093613;28;20047;-75
2021/05/01 08:40:39;;;;;;;47.03;32.92;;;;;;;;;;5093615;28;20473;-75
2021/05/01 08:43:04;;;;;;;37.13;28.95;;;;;;;;;;5093525;28;20047;-75
2021/05/01 08:45:32;;;;;;;40.78;30.30;;;;;;;;;;5091554;28;20028;-76
2021/05/01 08:48:00;;;;;;;38.00;29.60;;;;;;;;;;5063424;28;20107;-76
2021/05/01 08:50:26;;;;;;;46.83;31.92;;;;;;;;;;5062837;28;20056;-76
2021/05/01 08:52:55;;;;;;;43.97;31.27;;;;;;;;;;5072440;28;20036;-81
2021/05/01 08:55:29;;;;;;;44.88;32.30;;;;;;;;;;5078036;28;20044;-78
2021/05/01 08:57:55;;;;;;;43.15;33.53;;;;;;;;;;5077747;28;20036;-79
2021/05/01 09:00:21;;;;;;;44.58;32.25;;;;;;;;;;5078392;28;20037;-79
2021/05/01 09:02:49;;;;;;;45.58;32.42;;;;;;;;;;5075535;28;20032;-80
2021/05/01 09:05:15;;;;;;;48.88;35.25;;;;;;;;;;5077833;28;20024;-80
2021/05/01 09:07:46;;;;;;;45.13;33.35;;;;;;;;;;5077672;28;20024;-81
2021/05/01 09:10:13;;;;;;;45.08;34.22;;;;;;;;;;5063225;28;20037;-84
2021/05/01 09:12:56;;;;;;;48.95;36.03;;;;;;;;;;5080414;28;20039;-82
2021/05/01 09:15:25;;;;;;;46.60;34.47;;;;;;;;;;5076994;28;20037;-78
2021/05/01 09:18:01;;;;;;;47.28;34.42;;;;;;;;;;5072663;28;20049;-78
2021/05/01 09:20:28;;;;;;;46.58;33.30;;;;;;;;;;5073240;28;20037;-77
2021/05/01 09:23:00;;;;;;;49.25;36.03;;;;;;;;;;5077318;28;20040;-80
2021/05/01 09:25:28;;;;;;;45.53;32.58;;;;;;;;;;5072866;28;20025;-76
2021/05/01 09:28:03;;;;;;;45.20;33.92;;;;;;;;;;5074978;28;20043;-79
2021/05/01 09:30:30;;;;;;;49.50;35.45;;;;;;;;;;5076767;28;20032;-78
2021/05/01 09:33:17;;;;;;;45.10;33.42;;;;;;;;;;5076004;28;20032;-81
2021/05/01 09:36:33;;;;;;;47.05;35.58;;;;;;;;;;5079411;28;20059;-83
2021/05/01 09:39:08;;;;;;;47.85;36.40;;;;;;;;;;5078564;28;20044;-80
2021/05/01 09:41:35;;;;;;;48.53;35.92;;;;;;;;;;5087747;28;20048;-78
2021/05/01 09:44:15;;;;;;;47.33;33.22;;;;;;;;;;5096629;28;20040;-78
2021/05/01 09:46:54;;;;;;;41.40;32.10;;;;;;;;;;5102805;28;20071;-81
2021/05/01 09:49:24;;;;;;;47.78;35.20;;;;;;;;;;5099515;28;20032;-77
2021/05/01 09:51:57;;;;;;;39.58;31.75;;;;;;;;;;5097220;28;20090;-81
2021/05/01 09:54:36;;;;;;;38.63;29.08;;;;;;;;;;5106310;28;20032;-79
2021/05/01 09:57:21;;;;;;;39.38;30.25;;;;;;;;;;5097919;28;20039;-80
2021/05/01 09:59:56;;;;;;;36.47;28.20;;;;;;;;;;5097473;28;20093;-79
2021/05/01 10:02:31;;;;;;;40.13;31.35;;;;;;;;;;5102334;28;20100;-83
2021/05/01 10:05:01;;;;;;;;;;;;;;;;;;5110453;28;20032;-79
2021/05/01 10:07:27;;;;;;;38.33;28.13;;;;;;;;;;5072167;28;19912;-79
2021/05/01 10:09:58;;;;;;;37.65;29.02;;;;;;;;;;5060061;28;20033;-79
2021/05/01 10:12:37;;;;;;;37.05;29.73;;;;;;;;;;5094529;28;20031;-81
2021/05/01 10:15:13;;;;;;;36.00;26.95;;;;;;;;;;5066066;28;20079;-79
2021/05/01 10:17:38;;;;;;;31.92;25.05;;;;;;;;;;5060243;28;20041;-81
2021/05/01 10:20:06;;;;;;;33.33;25.45;;;;;;;;;;5060790;28;20036;-79
2021/05/01 10:22:39;;;;;;;27.65;24.10;;;;;;;;;;5057630;28;20490;-80
2021/05/01 10:25:07;;;;;;;30.23;24.50;;;;;;;;;;5056983;28;20453;-76
2021/05/01 10:27:50;;;;;;;29.92;23.65;;;;;;;;;;5055073;28;20033;-73
2021/05/01 10:30:33;;;;;;;26.75;22.08;;;;;;;;;;5054889;28;20502;-72
2021/05/01 10:33:39;;;;;;;28.45;23.08;;;;;;;;;;5055541;28;20037;-73
2021/05/01 10:36:03;;;;;;;28.73;22.73;;;;;;;;;;5054193;28;20044;-72
2021/05/01 10:38:29;;;;;;;30.33;23.20;;;;;;;;;;5055794;28;20131;-73
2021/05/01 10:40:58;;;;;;;26.98;20.38;;;;;;;;;;5065779;28;20456;-73
2021/05/01 10:43:25;;;;;;;26.65;20.50;;;;;;;;;;5095637;28;20388;-73
2021/05/01 10:45:56;;;;;;;27.10;20.48;;;;;;;;;;5094910;28;20070;-73
2021/05/01 10:48:23;;;;;;;26.90;19.00;;;;;;;;;;5095700;28;20032;-73
2021/05/01 10:51:06;;;;;;;24.33;19.85;;;;;;;;;;5095899;28;20028;-74
2021/05/01 10:53:32;;;;;;;24.85;20.05;;;;;;;;;;5095753;28;20055;-74
2021/05/01 10:55:58;;;;;;;26.25;20.52;;;;;;;;;;5094942;28;20656;-73
2021/05/01 10:58:35;;;;;;;23.60;18.85;;;;;;;;;;5094924;28;20042;-74
2021/05/01 11:01:03;;;;;;;23.85;19.30;;;;;;;;;;5095824;28;20085;-74
2021/05/01 11:03:29;;;;;;;24.80;17.90;;;;;;;;;;5095725;28;20064;-73
2021/05/01 11:05:58;;;;;;;25.52;19.98;;;;;;;;;;5095646;28;20031;-73
2021/05/01 11:08:32;;;;;;;23.83;19.73;;;;;;;;;;5094097;28;20484;-73
2021/05/01 11:10:58;;;;;;;24.95;20.40;;;;;;;;;;5095634;28;20085;-73
2021/05/01 11:13:29;;;;;;;27.40;22.52;;;;;;;;;;5094112;28;20028;-73
2021/05/01 11:16:05;;;;;;;26.30;21.60;;;;;;;;;;5095554;28;20040;-74
2021/05/01 11:18:34;;;;;;;23.13;18.92;;;;;;;;;;5095158;28;20042;-73
2021/05/01 11:21:00;;;;;;;26.70;22.42;;;;;;;;;;5094186;28;20036;-74
2021/05/01 11:23:29;;;;;;;29.23;21.50;;;;;;;;;;5095293;28;20173;-73
2021/05/01 11:25:58;;;;;;;26.70;21.58;;;;;;;;;;5095242;28;20465;-73
2021/05/01 11:28:24;;;;;;;26.30;22.30;;;;;;;;;;5094747;28;20123;-74
2021/05/01 11:30:51;;;;;;;30.88;22.02;;;;;;;;;;5095136;28;20538;-73
2021/05/01 11:33:19;;;;;;;25.55;20.63;;;;;;;;;;5094858;28;20122;-73
2021/05/01 11:35:45;;;;;;;29.80;22.15;;;;;;;;;;5095317;28;20442;-73
2021/05/01 11:38:16;;;;;;;25.75;22.23;;;;;;;;;;5094996;28;20035;-74
2021/05/01 11:40:46;;;;;;;29.27;22.00;;;;;;;;;;5094757;28;20031;-75
2021/05/01 11:43:13;;;;;;;23.75;19.00;;;;;;;;;;5094754;28;20039;-73
2021/05/01 11:45:44;;;;;;;25.23;20.50;;;;;;;;;;5094682;28;20028;-73
2021/05/01 11:48:15;;;;;;;26.52;20.95;;;;;;;;;;5094838;28;20452;-74
2021/05/01 11:50:42;;;;;;;26.65;19.05;;;;;;;;;;5093508;28;20047;-73
2021/05/01 11:53:43;;;;;;;25.52;18.88;;;;;;;;;;5094809;28;20063;-74
2021/05/01 11:56:26;;;;;;;22.73;18.67;;;;;;;;;;5082522;28;20387;-74
2021/05/01 11:59:08;;;;;;;21.73;17.45;;;;;;;;;;5093094;28;20417;-73
2021/05/01 12:01:41;;;;;;;23.65;16.70;;;;;;;;;;5094643;28;20461;-74
2021/05/01 12:04:08;;;;;;;22.73;16.60;;;;;;;;;;5094619;28;20036;-73
2021/05/01 12:06:48;;;;;;;17.75;15.02;;;;;;;;;;5092999;28;20040;-74
2021/05/01 12:09:19;;;;;;;20.50;15.63;;;;;;;;;;5093006;28;20039;-73
2021/05/01 12:11:47;;;;;;;24.38;17.30;;;;;;;;;;5094063;28;20398;-74
2021/05/01 12:14:13;;;;;;;20.02;16.60;;;;;;;;;;5094358;28;20082;-73
2021/05/01 12:16:41;;;;;;;19.00;13.80;;;;;;;;;;5093562;28;20036;-74
2021/05/01 12:19:07;;;;;;;22.45;16.58;;;;;;;;;;5094105;28;20035;-73
2021/05/01 12:21:44;;;;;;;17.45;15.55;;;;;;;;;;5094251;28;20389;-73
2021/05/01 12:24:31;;;;;;;20.35;15.75;;;;;;;;;;5092922;28;20031;-73
2021/05/01 12:26:58;;;;;;;23.77;15.95;;;;;;;;;;5093928;28;20493;-73
2021/05/01 12:29:26;;;;;;;21.00;17.25;;;;;;;;;;5093970;28;20051;-74
2021/05/01 12:31:57;;;;;;;22.38;17.80;;;;;;;;;;5093842;28;20075;-73
2021/05/01 12:34:46;;;;;;;26.30;19.20;;;;;;;;;;5094019;28;20063;-74
2021/05/01 12:37:12;;;;;;;21.13;16.10;;;;;;;;;;5092846;28;20047;-73
2021/05/01 12:39:38;;;;;;;23.02;16.33;;;;;;;;;;5092268;28;20036;-74
2021/05/01 12:42:19;;;;;;;19.42;16.92;;;;;;;;;;5092927;28;20106;-74
2021/05/01 12:44:47;;;;;;;18.83;15.23;;;;;;;;;;5093791;28;20461;-74
2021/05/01 12:47:35;;;;;;;18.52;16.10;;;;;;;;;;5093694;28;20058;-74
2021/05/01 12:50:22;;;;;;;23.65;18.27;;;;;;;;;;5093333;28;20047;-73
2021/05/01 12:52:47;;;;;;;34.03;21.92;;;;;;;;;;5092511;28;20546;-74
2021/05/01 12:55:14;;;;;;;26.50;20.00;;;;;;;;;;5093435;28;20067;-73
2021/05/01 12:57:40;;;;;;;24.70;18.83;;;;;;;;;;5093407;28;20036;-73
2021/05/01 13:00:25;;;;;;;21.05;17.65;;;;;;;;;;5092205;28;20047;-73
2021/05/01 13:03:05;;;;;;;23.80;19.27;;;;;;;;;;5093422;28;20036;-73
2021/05/01 13:05:33;;;;;;;22.75;17.25;;;;;;;;;;5093513;28;20032;-73
2021/05/01 13:07:59;;;;;;;24.95;19.58;;;;;;;;;;5093433;28;20040;-73
2021/05/01 13:10:25;;;;;;;21.73;18.10;;;;;;;;;;5093496;28;20039;-73
2021/05/01 13:12:55;;;;;;;26.65;21.38;;;;;;;;;;5091985;28;20040;-73
2021/05/01 13:15:22;;;;;;;23.38;20.05;;;;;;;;;;5092971;28;20055;-73
2021/05/01 13:18:01;;;;;;;29.30;21.13;;;;;;;;;;5092065;28;20031;-73
2021/05/01 13:20:27;;;;;;;28.52;19.15;;;;;;;;;;5091426;28;20032;-73
2021/05/01 13:22:52;;;;;;;24.92;20.30;;;;;;;;;;5093294;28;20136;-73
2021/05/01 13:25:23;;;;;;;31.10;22.20;;;;;;;;;;5093248;28;20036;-73
2021/05/01 13:27:53;;;;;;;29.75;19.38;;;;;;;;;;5092727;28;20050;-73
2021/05/01 13:30:26;;;;;;;24.40;19.52;;;;;;;;;;5093157;28;20032;-73
2021/05/01 13:32:58;;;;;;;22.83;19.15;;;;;;;;;;5092167;28;20040;-73
2021/05/01 13:35:25;;;;;;;22.83;18.40;;;;;;;;;;5093167;28;20490;-73
2021/05/01 13:37:52;;;;;;;22.77;17.08;;;;;;;;;;5093146;28;20039;-73
2021/05/01 13:40:25;;;;;;;26.20;19.80;;;;;;;;;;5091494;28;20032;-73
2021/05/01 13:42:51;;;;;;;23.75;18.98;;;;;;;;;;5092738;28;20052;-74
2021/05/01 13:45:17;;;;;;;24.35;18.10;;;;;;;;;;5067021;28;20079;-74
2021/05/01 13:47:47;;;;;;;24.15;18.35;;;;;;;;;;5060334;28;20099;-75
2021/05/01 13:50:23;;;;;;;23.27;18.80;;;;;;;;;;5063957;28;20112;-74
2021/05/01 13:53:09;;;;;;;24.27;18.85;;;;;;;;;;5062323;28;20037;-74
2021/05/01 13:55:36;;;;;;;22.55;16.77;;;;;;;;;;5062937;28;20399;-75
2021/05/01 13:58:05;;;;;;;22.88;18.13;;;;;;;;;;5060812;28;20036;-75
2021/05/01 14:00:37;;;;;;;22.77;17.48;;;;;;;;;;5061750;28;20037;-74
2021/05/01 14:03:12;;;;;;;19.17;16.55;;;;;;;;;;5060861;28;20036;-74
2021/05/01 14:05:38;;;;;;;23.50;18.58;;;;;;;;;;5061416;28;20064;-74
2021/05/01 14:08:04;;;;;;;24.58;16.42;;;;;;;;;;5062796;28;20474;-74
2021/05/01 14:10:32;;;;;;;22.33;17.50;;;;;;;;;;5061573;28;20050;-74
2021/05/01 14:13:16;;;;;;;22.42;17.85;;;;;;;;;;5062863;28;20029;-74
2021/05/01 14:15:42;;;;;;;23.42;18.08;;;;;;;;;;5060915;28;20041;-74
2021/05/01 14:18:15;;;;;;;24.63;21.02;;;;;;;;;;5045366;28;20033;-74
2021/05/01 14:20:49;;;;;;;24.45;19.13;;;;;;;;;;5060509;28;20032;-74
2021/05/01 14:23:16;;;;;;;28.48;20.17;;;;;;;;;;5065047;28;20040;-74
2021/05/01 14:25:43;;;;;;;21.08;17.30;;;;;;;;;;5072720;28;20119;-74